createdAt,value
2018-11-21T00:00:33.622Z,-2.00
2018-11-21T00:05:38.390Z,-1.90
2018-11-21T00:10:42.920Z,-1.90
2018-11-21T00:15:47.543Z,-1.90
2018-11-21T00:20:51.851Z,-1.80
2018-11-21T00:25:56.087Z,-1.80
2018-11-21T00:31:00.521Z,-1.60
2018-11-21T00:36:04.937Z,-1.70
2018-11-21T00:41:09.465Z,-1.80
2018-11-21T00:46:14.216Z,-1.80
2018-11-21T00:51:18.741Z,-1.90
2018-11-21T00:56:23.175Z,-2.10
2018-11-21T01:01:27.550Z,-2.20
2018-11-21T01:06:32.239Z,-2.40
2018-11-21T01:11:36.514Z,-2.70
2018-11-21T01:16:40.886Z,-2.70
2018-11-21T01:21:45.145Z,-2.70
2018-11-21T01:26:49.644Z,-2.70
2018-11-21T01:31:54.182Z,-2.60
2018-11-21T01:36:58.489Z,-2.80
2018-11-21T01:42:03.056Z,-2.70
2018-11-21T01:47:07.470Z,-2.60
2018-11-21T01:52:12.012Z,-2.60
2018-11-21T01:57:16.743Z,-2.60
2018-11-21T02:02:21.030Z,-2.60
2018-11-21T02:07:25.376Z,-2.60
2018-11-21T02:12:29.736Z,-2.60
2018-11-21T02:17:34.043Z,-2.50
2018-11-21T02:22:38.295Z,-2.20
2018-11-21T02:27:43.008Z,-2.20
2018-11-21T02:32:47.404Z,-2.30
2018-11-21T02:37:51.700Z,-2.40
2018-11-21T02:42:56.114Z,-2.40
2018-11-21T02:48:00.567Z,-2.60
2018-11-21T02:53:05.073Z,-2.80
2018-11-21T02:58:09.332Z,-2.90
2018-11-21T03:03:13.552Z,-3.00
2018-11-21T03:08:17.812Z,-3.10
2018-11-21T03:13:27.760Z,-3.10
2018-11-21T03:18:26.259Z,-3.10
2018-11-21T03:23:30.525Z,-3.20
2018-11-21T03:28:34.782Z,-3.40
2018-11-21T03:33:39.114Z,-3.30
2018-11-21T03:38:43.438Z,-3.10
2018-11-21T03:43:47.837Z,-2.90
2018-11-21T03:48:52.227Z,-2.90
2018-11-21T03:53:56.748Z,-2.90
2018-11-21T03:59:00.972Z,-3.00
2018-11-21T04:04:05.924Z,-3.00
2018-11-21T04:09:11.899Z,-2.60
2018-11-21T04:14:16.196Z,-2.60
2018-11-21T04:19:20.473Z,-2.60
2018-11-21T04:24:24.685Z,-2.70
2018-11-21T04:29:29.271Z,-2.80
2018-11-21T04:34:33.448Z,-3.00
2018-11-21T04:39:37.675Z,-3.00
2018-11-21T04:44:42.118Z,-3.00
2018-11-21T04:49:46.253Z,-3.00
2018-11-21T04:54:50.925Z,-2.80
2018-11-21T04:59:55.109Z,-2.50
2018-11-21T05:04:59.411Z,-2.30
2018-11-21T05:10:03.797Z,-2.50
2018-11-21T05:15:08.512Z,-2.50
2018-11-21T05:20:12.825Z,-2.50
2018-11-21T05:25:17.070Z,-2.40
2018-11-21T05:30:21.367Z,-2.30
2018-11-21T05:35:26.164Z,-2.20
2018-11-21T05:40:30.563Z,-2.10
2018-11-21T05:45:35.089Z,-2.10
2018-11-21T05:50:39.378Z,-2.10
2018-11-21T05:55:43.672Z,-1.90
2018-11-21T06:00:49.192Z,-1.90
2018-11-21T06:05:53.025Z,-2.00
2018-11-21T06:10:57.308Z,-1.90
2018-11-21T06:16:01.510Z,-1.80
2018-11-21T06:21:06.060Z,-1.80
2018-11-21T06:26:10.460Z,-1.70
2018-11-21T06:31:14.673Z,-1.70
2018-11-21T06:36:19.075Z,-1.60
2018-11-21T06:41:23.372Z,-1.60
2018-11-21T06:46:27.725Z,-1.50
2018-11-21T06:51:35.336Z,-1.40
2018-11-21T06:56:36.384Z,-1.40
2018-11-21T07:01:40.563Z,-1.40
2018-11-21T07:06:44.727Z,-1.40
2018-11-21T07:11:48.944Z,-1.30
2018-11-21T07:16:53.269Z,-1.40
2018-11-21T07:21:57.515Z,-1.40
2018-11-21T07:27:01.835Z,-1.40
2018-11-21T07:32:06.385Z,-1.30
2018-11-21T07:37:10.727Z,-1.20
2018-11-21T07:42:15.165Z,-1.10
2018-11-21T07:47:19.499Z,-0.90
2018-11-21T07:52:23.706Z,-0.90
2018-11-21T07:57:42.215Z,-0.80
2018-11-21T08:02:46.512Z,-0.80
2018-11-21T08:08:09.871Z,-0.60
2018-11-21T08:13:38.816Z,-0.50
2018-11-21T08:19:08.104Z,-0.30
2018-11-21T08:24:42.726Z,-0.20
2018-11-21T08:29:46.813Z,-0.10
2018-11-21T08:34:53.209Z,0.10
2018-11-21T08:39:56.176Z,0.20
2018-11-21T08:45:00.406Z,0.40
2018-11-21T08:50:06.166Z,0.50
2018-11-21T08:55:11.607Z,0.70
2018-11-21T09:00:15.943Z,0.80
2018-11-21T09:05:20.138Z,0.80
2018-11-21T09:15:27.739Z,0.90
2018-11-21T09:20:31.931Z,1.00
2018-11-21T09:25:36.166Z,1.00
2018-11-21T09:30:40.473Z,1.10
2018-11-21T09:35:44.669Z,1.10
2018-11-21T09:40:48.801Z,1.40
2018-11-21T09:45:53.001Z,1.50
2018-11-21T09:50:57.297Z,1.60
2018-11-21T09:56:01.740Z,1.60
2018-11-21T10:01:42.532Z,1.60
2018-11-21T10:06:46.858Z,1.70
2018-11-21T10:11:51.160Z,1.70
2018-11-21T10:16:55.251Z,1.80
2018-11-21T10:21:59.419Z,1.60
2018-11-21T10:27:03.987Z,1.60
2018-11-21T10:32:08.329Z,1.80
2018-11-21T10:37:12.445Z,1.90
2018-11-21T10:42:16.759Z,2.10
2018-11-21T10:47:21.054Z,2.10
2018-11-21T10:52:44.516Z,2.30
2018-11-21T10:57:48.914Z,2.20
2018-11-21T11:03:05.450Z,2.10
2018-11-21T11:08:28.733Z,2.10
2018-11-21T11:13:50.776Z,2.20
2018-11-21T11:19:14.069Z,2.00
2018-11-21T11:24:55.409Z,2.00
2018-11-21T11:30:21.341Z,2.00
2018-11-21T11:35:43.373Z,2.00
2018-11-21T11:41:05.447Z,2.00
2018-11-21T11:46:27.729Z,2.00
2018-11-21T11:51:51.001Z,2.00
2018-11-21T11:57:29.228Z,2.00
2018-11-21T12:03:04.561Z,2.00
2018-11-21T12:08:33.526Z,2.00
2018-11-21T12:13:56.936Z,2.00
2018-11-21T12:19:23.190Z,1.90
2018-11-21T12:24:44.459Z,2.00
2018-11-21T12:30:26.380Z,2.10
2018-11-21T12:35:58.830Z,2.20
2018-11-21T12:41:22.064Z,2.10
2018-11-21T12:46:47.973Z,2.00
2018-11-21T12:52:11.230Z,2.10
2018-11-21T12:57:29.456Z,2.10
2018-11-21T13:02:45.903Z,2.00
2018-11-21T13:08:11.943Z,2.00
2018-11-21T13:13:33.787Z,2.10
2018-11-21T13:19:03.101Z,2.10
2018-11-21T13:24:25.213Z,2.10
2018-11-21T13:29:48.564Z,1.90
2018-11-21T13:35:11.906Z,1.90
2018-11-21T13:40:38.158Z,1.90
2018-11-21T13:46:16.392Z,1.90
2018-11-21T13:51:38.192Z,1.80
2018-11-21T13:56:42.442Z,1.80
2018-11-21T14:01:46.886Z,1.80
2018-11-21T14:06:51.138Z,1.90
2018-11-21T14:11:55.372Z,1.80
2018-11-21T14:16:59.933Z,1.80
2018-11-21T14:22:04.204Z,1.70
2018-11-21T14:27:08.541Z,1.70
2018-11-21T14:32:12.824Z,1.70
2018-11-21T14:37:17.139Z,1.70
2018-11-21T14:42:21.457Z,1.80
2018-11-21T14:47:25.722Z,1.70
2018-11-21T14:52:30.087Z,1.70
2018-11-21T14:57:34.398Z,1.60
2018-11-21T15:02:38.990Z,1.60
2018-11-21T15:07:44.012Z,1.50
2018-11-21T15:12:48.489Z,1.50
2018-11-21T15:17:52.793Z,1.50
2018-11-21T15:22:57.009Z,1.50
2018-11-21T15:28:01.329Z,1.40
2018-11-21T15:33:05.956Z,1.40
2018-11-21T15:38:10.119Z,1.40
2018-11-21T15:43:14.522Z,1.30
2018-11-21T15:48:18.855Z,1.30
2018-11-21T15:53:23.188Z,1.40
2018-11-21T15:58:27.414Z,1.40
2018-11-21T16:03:31.624Z,1.30
2018-11-21T16:08:35.884Z,1.30
2018-11-21T16:13:40.331Z,1.30
2018-11-21T16:18:44.531Z,1.30
2018-11-21T16:23:48.862Z,1.30
2018-11-21T16:28:53.390Z,1.30
2018-11-21T16:33:58.249Z,1.30
2018-11-21T16:39:02.359Z,1.30
2018-11-21T16:44:06.909Z,1.30
2018-11-21T16:49:11.153Z,1.30
2018-11-21T16:54:15.379Z,1.30
2018-11-21T16:59:19.794Z,1.30
2018-11-21T17:04:24.119Z,1.30
2018-11-21T17:09:39.934Z,1.30
2018-11-21T17:14:44.471Z,1.30
2018-11-21T17:19:48.872Z,1.30
2018-11-21T17:24:53.204Z,1.20
2018-11-21T17:29:57.586Z,1.20
2018-11-21T17:35:01.778Z,1.20
2018-11-21T17:40:10.312Z,1.30
2018-11-21T17:45:15.194Z,1.30
2018-11-21T17:50:20.891Z,1.30
2018-11-21T17:55:26.699Z,1.20
2018-11-21T18:00:31.871Z,1.30
2018-11-21T18:05:37.870Z,1.30
2018-11-21T18:10:42.410Z,1.30
2018-11-21T18:15:46.706Z,1.30
2018-11-21T18:20:50.888Z,1.40
2018-11-21T18:25:55.136Z,1.40
2018-11-21T18:31:00.618Z,1.40
2018-11-21T18:36:05.360Z,1.30
2018-11-21T18:41:09.523Z,1.30
2018-11-21T18:46:13.905Z,1.40
2018-11-21T18:51:18.243Z,1.30
2018-11-21T18:56:45.524Z,1.30
2018-11-21T19:01:48.590Z,1.30
2018-11-21T19:06:52.953Z,1.30
2018-11-21T19:11:57.342Z,1.30
2018-11-21T19:17:01.588Z,1.30
2018-11-21T19:22:05.753Z,1.20
2018-11-21T19:27:10.275Z,1.20
2018-11-21T19:32:14.588Z,1.30
2018-11-21T19:37:18.949Z,1.30
2018-11-21T19:42:23.145Z,1.30
2018-11-21T19:47:27.276Z,1.30
2018-11-21T19:52:31.584Z,1.40
2018-11-21T19:57:35.797Z,1.40
2018-11-21T20:02:40.202Z,1.40
2018-11-21T20:07:44.470Z,1.40
2018-11-21T20:12:48.591Z,1.40
2018-11-21T20:17:54.504Z,1.40
2018-11-21T20:22:59.295Z,1.40
2018-11-21T20:28:03.527Z,1.40
2018-11-21T20:33:07.922Z,1.30
2018-11-21T20:38:12.564Z,1.40
